• Join FlightAware (Why Join?)
  • Login
  • US Flag 
Rudolph Flight #1: Arrived! 
12:10PM EST


 

Airport Tracker/Info


-or-


 

Live Flight TrackerFlight Track Log ✈ JBU33 ✈ 07-Aug-2013 ✈ KBTV - KJFK

Flight Track Log - Related Links

Times and Time Zones

All times are in EDT time to prevent confusion due to time zone crossing. See the JBU33 flight status page for this flight to view local times or setup timezone preferences in your user account.

Time Position Orientation Groundspeed Altitude Reporting Facility
EDT Latitude Longitude Course Direction KTS MPH feet Rate Location/Type
01:13PM 44.3850 -73.0067 196° South 240 276 6,100  Level Boston Center
01:14PM 44.3286 -73.0117 184° South 272 313 8,700 2,520 Climbing Boston Center
01:15PM 44.0712 -73.2983 195° South  Level FlightAware Approximate
01:15PM 44.2556 -73.0489 200° South 279 321 11,300  Level Boston Center
01:16PM 43.9912 -73.3252 194° South  Level FlightAware Approximate
01:16PM 44.1678 -73.0942 200° South 314 361 13,300  Level Boston Center
01:17PM 43.9113 -73.3522 196° South  Level FlightAware Approximate
01:17PM 44.0717 -73.1422 200° South 353 406 15,600  Level Boston Center
01:18PM 43.8557 -73.3745 196° South  Level FlightAware Approximate
01:18PM 43.9400 -73.2100 200° South 393 452 18,500  Level Boston Center
01:19PM 43.8353 -73.2633 200° South 400 460 20,600 2,400 Climbing Boston Center
01:20PM 43.7267 -73.3192 200° South 406 467 23,300 1,860 Climbing Boston Center
01:21PM 43.6431 -73.3611 200° South 393 452 24,400 1,320 Climbing Boston Center
01:22PM 43.5467 -73.4111 201° Southwest 380 437 26,100 1,680 Climbing Boston Center
01:23PM 43.4406 -73.4036 177° South 368 423 27,800 960 Climbing Boston Center
01:24PM 43.3281 -73.3847 173° South 381 438 28,000 60 Climbing Boston Center
01:25PM 43.2197 -73.3889 182° South 395 455 28,000  Level Boston Center
01:26PM 43.1006 -73.4211 191° South 400 460 28,000  Level Boston Center
01:27PM 42.9961 -73.4506 192° South 400 460 28,000 -180 Level Boston Center
01:28PM 42.8875 -73.4800 191° South 395 455 27,700 -660 Descending Boston Center
01:29PM 42.7664 -73.5175 193° South 389 448 26,600 -900 Descending Boston Center
01:30PM 42.6639 -73.5497 193° South 384 442 26,000 -300 Descending Boston Center
01:31PM 42.5614 -73.5761 191° South 379 436 26,000  Level Boston Center
01:32PM 42.4694 -73.6053 193° South 378 435 26,000  Level Boston Center
01:33PM 42.3692 -73.6344 192° South 378 435 26,000  Level Boston Center
01:34PM 42.2583 -73.6547 188° South 371 427 26,000  Level Boston Center
01:35PM 42.1475 -73.6889 193° South 383 441 26,000  Level Boston Center
01:36PM 42.0389 -73.7231 193° South 419 482 26,000  Level Boston Center
01:38PM 41.8039 -73.7875 192° South 429 494 26,000  Level New York Center
01:39PM 41.6867 -73.8183 191° South 429 494 26,000 -960 Level New York Center
01:40PM 41.5764 -73.8964 208° Southwest 411 473 24,100 -2,040 Descending New York Center
01:41PM 41.4844 -73.9781 214° Southwest 411 473 22,000 -2,100 Descending New York Center
01:42PM 41.4033 -74.0542 215° Southwest 411 473 20,000 -1,020 Descending New York Center
01:43PM 41.3222 -74.1219 212° Southwest 381 438 20,000  Level New York Center
01:44PM 41.2411 -74.1925 213° Southwest 355 409 20,000 -360 Level New York Center
01:45PM 41.1583 -74.2517 208° Southwest 344 396 19,300 -540 Descending New York Center
01:46PM 41.0878 -74.3086 211° Southwest 339 390 19,000 -180 Descending New York Center
01:47PM 40.9833 -74.2833 170° South 346 398 19,000  Level New York TRACON
01:48PM 40.9333 -74.1833 123° Southeast 352 405 19,000 -420 Level New York TRACON
01:49PM 40.8833 -74.0833 123° Southeast 349 402 18,300 -1,140 Descending New York TRACON
01:50PM 40.8333 -73.9833 123° Southeast 343 395 16,800 -1,620 Descending New York TRACON
01:51PM 40.7667 -73.8667 127° Southeast 336 387 15,000 -1,560 Descending New York TRACON
01:52PM 40.7333 -73.7667 114° Southeast 329 379 13,700 -1,080 Descending New York TRACON
01:53PM 40.6667 -73.7000 143° Southeast 363 418 13,000 -840 Descending New York TRACON
01:54PM 40.5833 -73.6833 171° South 305 351 12,100 -1,500 Descending New York TRACON
01:55PM 40.5000 -73.6833 180° South 290 334 10,100 -1,920 Descending New York TRACON
01:56PM 40.4333 -73.7167 201° Southwest 279 321 8,300 -1,860 Descending New York TRACON
01:57PM 40.3667 -73.7667 210° Southwest 268 308 6,400 -2,100 Descending New York TRACON
01:58PM 40.3667 -73.8500 270° West 268 308 4,200 -1,620 Descending New York TRACON
01:59PM 40.4167 -73.9500 303° West 276 318 3,000 -600 Descending New York TRACON
02:00PM 40.4833 -73.9667 349° North 267 307 3,000  Level New York TRACON
02:01PM 40.5333 -73.9667 360° North 239 275 3,000 -120 Level New York TRACON
02:02PM 40.5833 -73.9167 37° Northeast 206 237 2,800 -600 Descending New York TRACON
02:03PM 40.6333 -73.8833 27° Northeast 158 182 1,800 -900 Descending New York TRACON
02:04PM 40.6667 -73.8500 37° Northeast 152 175 1,000 -840 Descending New York TRACON